Time;durP1;ratioP1;P1;durP2;ratioP2;P2;SDS_P1;SDS_P2;PMS_P1;PMS_P2;Temp;Humidity;BMP_temperature;BMP_pressure;BME280_temperature;BME280_humidity;BME280_pressure;Samples;Min_cycle;Max_cycle;Signal;HPM_P1;HPM_P2
2022/10/25 00:00:15;;;;;;;12.30;1.30;;;15.60;99.90;;;;;;4898309;29;20029;-72
2022/10/25 00:02:41;;;;;;;8.07;0.90;;;15.60;99.90;;;;;;4897401;29;20511;-72
2022/10/25 00:05:10;;;;;;;4.13;0.68;;;15.50;99.90;;;;;;4898407;29;20029;-70
2022/10/25 00:07:36;;;;;;;5.13;0.98;;;15.60;99.90;;;;;;4897257;29;20024;-70
2022/10/25 00:10:01;;;;;;;8.02;1.65;;;15.50;99.90;;;;;;4897372;29;20020;-70
2022/10/25 00:12:27;;;;;;;6.30;0.80;;;15.60;99.90;;;;;;4898719;29;20158;-70
2022/10/25 00:14:53;;;;;;;4.95;0.90;;;15.60;99.90;;;;;;4896912;29;20054;-70
2022/10/25 00:17:18;;;;;;;2.45;0.60;;;15.60;99.90;;;;;;4897630;29;20076;-70
2022/10/25 00:19:44;;;;;;;5.38;0.82;;;15.60;99.90;;;;;;4898045;29;20069;-70
2022/10/25 00:22:10;;;;;;;2.65;0.95;;;15.50;99.90;;;;;;4896854;29;20039;-70
2022/10/25 00:24:35;;;;;;;5.60;0.88;;;15.50;99.90;;;;;;4896833;29;20051;-70
2022/10/25 00:27:01;;;;;;;3.70;0.55;;;15.50;99.90;;;;;;4896798;29;20029;-70
2022/10/25 00:29:26;;;;;;;3.97;0.80;;;15.50;99.90;;;;;;4896880;29;20077;-70
2022/10/25 00:31:52;;;;;;;5.57;1.20;;;15.50;99.90;;;;;;4896807;29;20039;-70
2022/10/25 00:34:17;;;;;;;2.95;0.77;;;15.50;99.90;;;;;;4897892;29;20032;-70
2022/10/25 00:36:43;;;;;;;3.28;0.68;;;15.50;99.90;;;;;;4896669;29;20025;-70
2022/10/25 00:39:08;;;;;;;6.80;0.82;;;15.50;99.90;;;;;;4896756;29;20021;-70
2022/10/25 00:41:34;;;;;;;4.65;0.70;;;15.50;99.90;;;;;;4897903;29;20028;-70
2022/10/25 00:44:37;;;;;;;10.57;1.02;;;15.50;99.90;;;;;;4900568;29;20084;-70
2022/10/25 00:47:29;;;;;;;8.35;0.80;;;15.50;99.90;;;;;;4900704;29;20035;-70
2022/10/25 00:50:01;;;;;;;4.20;0.80;;;15.50;99.90;;;;;;4897585;29;20036;-70
2022/10/25 00:52:32;;;;;;;2.22;0.75;;;15.40;99.90;;;;;;4902375;29;20044;-70
2022/10/25 00:54:59;;;;;;;8.80;1.00;;;15.40;99.90;;;;;;4900257;29;20031;-71
2022/10/25 00:57:47;;;;;;;5.63;0.77;;;15.40;99.90;;;;;;4900415;29;20037;-70
2022/10/25 01:00:13;;;;;;;1.98;0.47;;;15.40;99.90;;;;;;4901323;29;20025;-70
2022/10/25 01:02:38;;;;;;;1.80;0.60;;;15.40;99.90;;;;;;4901308;29;20416;-70
2022/10/25 01:05:04;;;;;;;3.15;0.80;;;15.40;99.90;;;;;;4901335;29;20084;-70
2022/10/25 01:07:30;;;;;;;10.35;1.33;;;15.40;99.90;;;;;;4901567;29;20084;-70
2022/10/25 01:09:56;;;;;;;4.28;0.85;;;15.30;99.90;;;;;;4901309;29;20028;-70
2022/10/25 01:12:22;;;;;;;3.03;0.88;;;15.30;99.90;;;;;;4901532;29;20033;-70
2022/10/25 01:14:50;;;;;;;3.85;0.80;;;15.30;99.90;;;;;;4900091;29;20028;-70
2022/10/25 01:17:46;;;;;;;7.85;1.10;;;15.20;99.90;;;;;;4901088;29;20028;-70
2022/10/25 01:20:33;;;;;;;3.53;0.93;;;15.20;99.90;;;;;;4901302;29;20037;-70
2022/10/25 01:23:16;;;;;;;5.32;0.70;;;15.10;99.90;;;;;;4900027;29;20029;-70
2022/10/25 01:25:48;;;;;;;7.38;0.82;;;15.10;99.90;;;;;;4901129;29;20056;-70
2022/10/25 01:28:35;;;;;;;7.55;1.00;;;15.00;99.90;;;;;;4901315;29;20096;-70
2022/10/25 01:31:01;;;;;;;6.63;0.93;;;15.00;99.90;;;;;;4899894;29;20065;-70
2022/10/25 01:33:54;;;;;;;7.55;0.80;;;15.00;99.90;;;;;;4899970;29;20021;-70
2022/10/25 01:36:23;;;;;;;8.57;1.48;;;15.00;99.90;;;;;;4896804;29;20060;-70
2022/10/25 01:39:16;;;;;;;3.83;0.98;;;14.90;99.90;;;;;;4900569;29;20029;-70
2022/10/25 01:42:03;;;;;;;5.50;0.95;;;14.90;99.90;;;;;;4899586;29;20029;-70
2022/10/25 01:44:51;;;;;;;1.52;1.00;;;14.80;99.90;;;;;;4900789;29;20021;-70
2022/10/25 01:47:26;;;;;;;5.40;1.52;;;14.80;99.90;;;;;;4899585;29;20044;-70
2022/10/25 01:50:03;;;;;;;9.20;1.27;;;14.80;99.90;;;;;;4899580;29;20025;-70
2022/10/25 01:52:29;;;;;;;5.18;1.40;;;14.50;99.90;;;;;;4900001;29;20029;-70
2022/10/25 01:54:55;;;;;;;4.72;1.23;;;14.70;99.90;;;;;;4899246;29;20039;-71
2022/10/25 01:57:42;;;;;;;6.93;1.08;;;14.60;99.90;;;;;;4900460;29;20044;-70
2022/10/25 02:00:19;;;;;;;2.15;1.10;;;14.50;99.90;;;;;;4899268;29;20089;-70
2022/10/25 02:03:07;;;;;;;10.45;1.33;;;14.40;99.90;;;;;;4899306;29;20031;-70
2022/10/25 02:05:47;;;;;;;16.65;2.20;;;14.40;99.90;;;;;;4899864;29;20089;-70
2022/10/25 02:08:38;;;;;;;4.25;1.17;;;14.40;99.90;;;;;;4900089;29;20024;-70
2022/10/25 02:11:25;;;;;;;3.78;1.42;;;14.20;99.90;;;;;;4899121;29;20031;-70
2022/10/25 02:14:20;;;;;;;13.77;1.90;;;14.10;99.90;;;;;;4900239;29;20028;-70
2022/10/25 02:16:55;;;;;;;11.43;1.83;;;14.20;99.90;;;;;;4899020;29;20027;-70
2022/10/25 02:19:32;;;;;;;7.90;1.65;;;14.20;99.90;;;;;;4898942;29;20111;-70
2022/10/25 02:21:59;;;;;;;9.07;1.33;;;14.20;99.90;;;;;;4900155;29;20032;-70
2022/10/25 02:24:27;;;;;;;7.40;1.15;;;14.20;99.90;;;;;;4899652;29;20056;-70
2022/10/25 02:26:54;;;;;;;10.88;2.45;;;14.30;99.90;;;;;;4899084;29;20029;-70
2022/10/25 02:29:21;;;;;;;10.70;1.30;;;14.20;99.90;;;;;;4898888;29;20032;-70
2022/10/25 02:31:47;;;;;;;5.53;1.08;;;14.20;99.90;;;;;;4899887;29;20046;-70
2022/10/25 02:34:12;;;;;;;2.70;1.00;;;14.30;99.90;;;;;;4898947;29;20119;-70
2022/10/25 02:36:38;;;;;;;4.15;1.05;;;14.30;99.90;;;;;;4903115;29;20080;-71
2022/10/25 02:39:05;;;;;;;6.13;1.02;;;14.40;99.90;;;;;;4918701;29;20043;-71
2022/10/25 02:41:32;;;;;;;6.30;1.00;;;14.30;99.90;;;;;;4918765;29;20032;-70
2022/10/25 02:43:58;;;;;;;7.22;1.40;;;14.40;99.90;;;;;;4918561;29;20068;-70
2022/10/25 02:46:23;;;;;;;6.60;1.52;;;14.40;99.90;;;;;;4918789;29;20024;-70
2022/10/25 02:48:50;;;;;;;3.10;0.73;;;14.20;99.90;;;;;;4933152;29;20036;-70
2022/10/25 02:51:17;;;;;;;6.03;1.40;;;14.20;99.90;;;;;;4917313;29;20025;-70
2022/10/25 02:53:43;;;;;;;6.05;1.45;;;14.30;99.90;;;;;;4917202;29;20024;-70
2022/10/25 02:56:08;;;;;;;2.75;0.98;;;14.20;99.90;;;;;;4950340;23;20051;-73
2022/10/25 02:58:35;;;;;;;4.88;1.02;;;14.20;99.90;;;;;;4940174;29;20106;-73
2022/10/25 03:01:02;;;;;;;4.10;1.20;;;14.10;99.90;;;;;;4939185;29;20024;-73
2022/10/25 03:03:28;;;;;;;4.70;1.10;;;14.10;99.90;;;;;;4939246;29;20042;-73
2022/10/25 03:05:54;;;;;;;5.82;1.00;;;14.20;99.90;;;;;;4955569;28;20047;-73
2022/10/25 03:08:20;;;;;;;8.20;1.55;;;14.20;99.90;;;;;;4939772;29;20027;-73
2022/10/25 03:10:46;;;;;;;8.63;1.40;;;14.30;99.90;;;;;;4939117;29;20165;-73
2022/10/25 03:13:12;;;;;;;6.30;1.17;;;14.30;99.90;;;;;;4938888;29;20098;-73
2022/10/25 03:15:37;;;;;;;7.18;1.33;;;14.20;99.90;;;;;;4938822;28;20557;-73
2022/10/25 03:18:03;;;;;;;2.15;0.95;;;14.10;99.90;;;;;;4938875;29;20031;-74
2022/10/25 03:20:28;;;;;;;5.63;1.00;;;14.00;99.90;;;;;;4938853;28;20171;-74
2022/10/25 03:22:54;;;;;;;4.03;1.27;;;13.90;99.90;;;;;;4939464;29;20035;-73
2022/10/25 03:25:19;;;;;;;3.97;0.85;;;13.90;99.90;;;;;;4938638;28;20036;-73
2022/10/25 03:27:45;;;;;;;5.10;1.17;;;13.80;99.90;;;;;;4939042;29;20114;-73
2022/10/25 03:30:12;;;;;;;4.75;1.15;;;13.90;99.90;;;;;;4938669;29;20135;-73
2022/10/25 03:32:38;;;;;;;10.50;1.20;;;13.70;99.90;;;;;;4938661;29;20038;-73
2022/10/25 03:35:04;;;;;;;4.63;1.10;;;13.70;99.90;;;;;;4938449;28;20032;-73
2022/10/25 03:37:30;;;;;;;8.25;1.25;;;13.70;99.90;;;;;;4938442;29;20024;-73
2022/10/25 03:39:55;;;;;;;10.77;1.75;;;13.80;99.90;;;;;;4938370;29;20071;-73
2022/10/25 03:42:21;;;;;;;5.45;1.17;;;13.80;99.90;;;;;;4938444;28;20074;-73
2022/10/25 03:44:47;;;;;;;5.38;1.20;;;13.90;99.90;;;;;;4938694;29;20023;-73
2022/10/25 03:47:12;;;;;;;10.50;1.23;;;14.00;99.90;;;;;;4938247;29;20027;-73
2022/10/25 03:49:38;;;;;;;4.82;1.10;;;14.00;99.90;;;;;;4938358;29;20034;-73
2022/10/25 03:52:06;;;;;;;8.50;1.50;;;14.10;99.90;;;;;;4938147;28;20454;-73
2022/10/25 03:54:32;;;;;;;5.28;1.00;;;14.10;99.90;;;;;;4938302;29;20035;-74
2022/10/25 03:56:57;;;;;;;6.15;1.13;;;14.00;99.90;;;;;;4938069;29;20073;-73
2022/10/25 03:59:23;;;;;;;9.80;1.40;;;14.10;99.90;;;;;;4956093;29;20059;-73
2022/10/25 04:01:48;;;;;;;3.08;1.15;;;14.10;99.90;;;;;;4938141;29;20050;-73
2022/10/25 04:04:14;;;;;;;6.05;1.05;;;14.10;99.90;;;;;;4938221;29;20031;-73
2022/10/25 04:06:39;;;;;;;11.32;1.52;;;14.10;99.90;;;;;;4938133;29;20019;-73
2022/10/25 04:09:06;;;;;;;4.85;0.95;;;14.00;99.90;;;;;;4938036;29;20026;-73
2022/10/25 04:11:31;;;;;;;8.48;1.15;;;14.00;99.90;;;;;;4938038;29;20049;-73
2022/10/25 04:13:57;;;;;;;5.57;1.70;;;14.10;99.90;;;;;;4938369;29;20024;-73
2022/10/25 04:16:22;;;;;;;7.97;1.73;;;13.90;99.90;;;;;;4938203;29;20035;-73
2022/10/25 04:18:50;;;;;;;6.03;1.58;;;13.90;99.90;;;;;;4938291;29;20031;-73
2022/10/25 04:21:15;;;;;;;7.22;1.20;;;13.80;99.90;;;;;;4937945;28;20030;-73
2022/10/25 04:23:41;;;;;;;7.47;1.60;;;13.70;99.90;;;;;;4938198;29;20019;-73
2022/10/25 04:26:06;;;;;;;7.95;1.35;;;13.60;99.90;;;;;;4937748;29;20098;-73
2022/10/25 04:28:32;;;;;;;6.40;1.45;;;13.50;99.90;;;;;;4938698;29;20023;-73
2022/10/25 04:30:58;;;;;;;11.68;1.58;;;13.50;99.90;;;;;;4938210;29;20027;-73
2022/10/25 04:33:23;;;;;;;3.45;0.93;;;13.50;99.90;;;;;;4938701;29;20028;-75
2022/10/25 04:35:56;;;;;;;6.35;1.40;;;13.50;99.90;;;;;;4937796;29;20027;-74
2022/10/25 04:38:22;;;;;;;7.13;1.52;;;13.60;99.90;;;;;;4938309;28;20042;-73
2022/10/25 04:40:55;;;;;;;4.18;1.20;;;13.50;99.90;;;;;;4938010;28;20027;-73
2022/10/25 04:43:21;;;;;;;1.38;1.13;;;13.40;99.90;;;;;;4937993;29;20054;-75
2022/10/25 04:45:47;;;;;;;5.30;1.10;;;13.30;99.90;;;;;;4937978;29;20023;-75
2022/10/25 04:48:13;;;;;;;13.23;1.50;;;13.30;99.90;;;;;;4938494;29;20020;-75
2022/10/25 04:50:39;;;;;;;9.57;1.17;;;13.30;99.90;;;;;;4938271;29;20118;-75
2022/10/25 04:53:05;;;;;;;3.75;1.27;;;13.30;99.90;;;;;;4937686;29;20023;-76
2022/10/25 04:55:31;;;;;;;5.60;1.48;;;13.30;99.90;;;;;;4937616;28;20062;-75
2022/10/25 04:57:56;;;;;;;2.97;1.17;;;13.20;99.90;;;;;;4937788;28;20031;-75
2022/10/25 05:00:23;;;;;;;5.85;1.20;;;13.30;99.90;;;;;;4937852;29;20050;-76
2022/10/25 05:02:52;;;;;;;6.82;1.45;;;13.50;99.90;;;;;;4937660;28;20031;-76
2022/10/25 05:05:18;;;;;;;5.70;1.40;;;13.50;99.90;;;;;;4938546;28;20023;-76
2022/10/25 05:07:44;;;;;;;5.47;1.33;;;13.60;99.90;;;;;;4937659;29;20031;-77
2022/10/25 05:10:10;;;;;;;6.25;1.02;;;13.60;99.90;;;;;;4937556;29;20038;-75
2022/10/25 05:12:36;;;;;;;7.90;1.42;;;13.60;99.90;;;;;;4937842;28;20028;-76
2022/10/25 05:15:02;;;;;;;8.77;1.20;;;13.60;99.90;;;;;;4938287;29;20118;-75
2022/10/25 05:17:28;;;;;;;7.25;1.50;;;13.50;99.90;;;;;;4937711;29;20062;-76
2022/10/25 05:19:53;;;;;;;6.65;1.33;;;13.40;99.90;;;;;;4937608;29;20167;-75
2022/10/25 05:22:19;;;;;;;4.82;1.50;;;13.20;99.90;;;;;;4938288;29;20028;-76
2022/10/25 05:24:45;;;;;;;7.82;1.95;;;13.00;99.90;;;;;;4938674;29;20027;-75
2022/10/25 05:27:10;;;;;;;5.85;1.00;;;12.90;99.90;;;;;;4937428;29;20019;-76
2022/10/25 05:29:36;;;;;;;13.35;1.83;;;12.80;99.90;;;;;;4940140;29;20023;-75
2022/10/25 05:32:01;;;;;;;3.47;1.55;;;12.80;99.90;;;;;;4940911;29;20126;-75
2022/10/25 05:34:27;;;;;;;5.72;1.83;;;12.90;99.90;;;;;;4941276;29;20054;-75
2022/10/25 05:36:53;;;;;;;8.55;2.08;;;12.90;99.90;;;;;;4940952;29;20038;-75
2022/10/25 05:39:19;;;;;;;5.47;1.60;;;12.90;99.90;;;;;;4941040;29;20031;-75
2022/10/25 05:41:44;;;;;;;7.05;1.55;;;12.80;99.90;;;;;;4941140;29;20023;-75
2022/10/25 05:44:10;;;;;;;6.35;1.70;;;12.70;99.90;;;;;;4940758;29;20030;-75
2022/10/25 05:46:36;;;;;;;4.40;1.90;;;12.70;99.90;;;;;;4940838;29;20106;-75
2022/10/25 05:49:02;;;;;;;5.47;1.50;;;12.70;99.90;;;;;;4940948;29;20038;-75
2022/10/25 05:51:30;;;;;;;9.02;1.90;;;12.70;99.90;;;;;;4940944;29;20027;-75
2022/10/25 05:53:58;;;;;;;8.18;2.55;;;12.70;99.90;;;;;;4940510;29;20023;-75
2022/10/25 05:56:26;;;;;;;2.13;1.33;;;12.60;99.90;;;;;;4940278;29;20483;-74
2022/10/25 05:58:52;;;;;;;10.95;1.75;;;12.50;99.90;;;;;;4940807;29;20038;-74
2022/10/25 06:01:20;;;;;;;9.38;1.80;;;12.50;99.90;;;;;;4940348;29;20019;-75
2022/10/25 06:03:50;;;;;;;3.67;1.60;;;12.40;99.90;;;;;;4940268;29;20110;-75
2022/10/25 06:06:17;;;;;;;4.22;1.67;;;12.40;99.90;;;;;;4940898;29;20020;-74
2022/10/25 06:08:43;;;;;;;6.05;1.83;;;12.50;99.90;;;;;;4940210;29;20086;-74
2022/10/25 06:11:12;;;;;;;4.93;1.67;;;12.50;99.90;;;;;;4940432;29;20031;-75
2022/10/25 06:13:37;;;;;;;3.85;1.75;;;12.30;99.90;;;;;;4940297;29;20062;-75
2022/10/25 06:16:11;;;;;;;13.02;1.83;;;12.30;99.90;;;;;;4941046;29;20046;-75
2022/10/25 06:18:37;;;;;;;7.88;1.85;;;12.40;99.90;;;;;;4940690;28;20023;-75
2022/10/25 06:21:24;;;;;;;8.13;2.15;;;12.50;99.90;;;;;;4940133;29;20030;-74
2022/10/25 06:23:50;;;;;;;4.32;1.55;;;12.60;99.90;;;;;;4939877;29;20486;-75
2022/10/25 06:26:21;;;;;;;4.35;2.25;;;12.70;99.90;;;;;;4939574;29;20028;-75
2022/10/25 06:28:50;;;;;;;4.90;1.75;;;12.70;99.90;;;;;;4939825;29;20091;-74
2022/10/25 06:31:17;;;;;;;5.82;2.00;;;12.60;99.90;;;;;;4940409;28;20031;-74
2022/10/25 06:33:43;;;;;;;6.35;1.73;;;12.60;99.90;;;;;;4940501;29;20034;-75
2022/10/25 06:36:15;;;;;;;3.28;1.73;;;12.60;99.90;;;;;;4940029;29;20023;-75
2022/10/25 06:38:41;;;;;;;16.00;2.47;;;12.60;99.90;;;;;;4939541;29;20058;-75
2022/10/25 06:41:11;;;;;;;6.43;2.60;;;12.60;99.90;;;;;;4938790;29;20054;-75
2022/10/25 06:43:37;;;;;;;9.32;2.78;;;12.60;99.90;;;;;;4939460;29;20077;-75
2022/10/25 06:46:15;;;;;;;5.10;2.38;;;12.60;99.90;;;;;;4939623;29;20051;-75
2022/10/25 06:48:41;;;;;;;9.90;2.45;;;12.60;99.90;;;;;;4940131;29;20023;-74
2022/10/25 06:51:10;;;;;;;6.53;2.28;;;12.60;99.90;;;;;;4939308;29;20177;-75
2022/10/25 06:53:36;;;;;;;12.73;2.83;;;12.70;99.90;;;;;;4939809;29;20058;-75
2022/10/25 06:56:03;;;;;;;3.67;2.05;;;12.70;99.90;;;;;;4939223;28;20035;-75
2022/10/25 06:58:30;;;;;;;5.90;2.50;;;12.80;99.90;;;;;;4939889;29;20141;-74
2022/10/25 07:01:01;;;;;;;6.30;2.53;;;12.80;99.90;;;;;;4939114;29;20023;-75
2022/10/25 07:03:30;;;;;;;9.93;2.57;;;12.70;99.90;;;;;;4939072;28;20482;-75
2022/10/25 07:05:58;;;;;;;13.65;3.28;;;12.80;99.90;;;;;;4939168;29;20274;-74
2022/10/25 07:08:24;;;;;;;9.07;2.08;;;12.70;99.90;;;;;;4939274;29;20019;-74
2022/10/25 07:10:54;;;;;;;7.22;2.38;;;12.80;99.90;;;;;;4938931;28;20046;-74
2022/10/25 07:13:20;;;;;;;6.80;2.05;;;12.70;99.90;;;;;;4939710;29;20031;-74
2022/10/25 07:15:45;;;;;;;7.32;2.20;;;12.70;99.90;;;;;;4939126;29;20038;-74
2022/10/25 07:18:11;;;;;;;9.02;1.92;;;12.80;99.90;;;;;;4938793;29;20096;-74
2022/10/25 07:20:36;;;;;;;8.30;2.05;;;12.90;99.90;;;;;;4956327;29;20386;-74
2022/10/25 07:23:02;;;;;;;9.40;1.90;;;13.10;99.90;;;;;;4939397;28;20031;-74
2022/10/25 07:25:27;;;;;;;8.05;1.67;;;13.10;99.90;;;;;;4939183;28;20023;-74
2022/10/25 07:27:53;;;;;;;9.38;2.33;;;13.30;99.90;;;;;;4938918;29;20023;-74
2022/10/25 07:30:18;;;;;;;5.25;1.60;;;13.50;99.90;;;;;;4938680;29;20035;-74
2022/10/25 07:32:44;;;;;;;6.10;1.83;;;13.70;99.90;;;;;;4938869;29;20027;-74
2022/10/25 07:35:09;;;;;;;7.05;1.98;;;13.80;99.90;;;;;;4955716;28;20039;-75
2022/10/25 07:37:35;;;;;;;15.93;2.17;;;13.70;99.90;;;;;;4938444;29;20023;-75
2022/10/25 07:40:00;;;;;;;7.47;2.42;;;13.70;99.90;;;;;;4938517;29;20023;-74
2022/10/25 07:42:26;;;;;;;6.72;1.83;;;13.60;99.90;;;;;;4939078;29;20091;-76
2022/10/25 07:44:51;;;;;;;6.03;1.75;;;13.70;99.90;;;;;;4938494;29;20518;-77
2022/10/25 07:47:17;;;;;;;7.35;1.50;;;13.70;99.90;;;;;;4938342;29;20028;-76
2022/10/25 07:49:42;;;;;;;7.85;1.75;;;13.70;99.90;;;;;;4938686;29;20019;-77
2022/10/25 07:52:10;;;;;;;8.98;1.70;;;13.80;99.90;;;;;;4937997;29;20027;-77
2022/10/25 07:54:35;;;;;;;6.38;1.55;;;13.90;99.90;;;;;;4938535;29;20023;-77
2022/10/25 07:57:01;;;;;;;8.60;1.40;;;13.80;99.90;;;;;;4955146;28;20045;-77
2022/10/25 07:59:26;;;;;;;13.07;2.38;;;13.90;99.90;;;;;;4955297;29;20030;-77
2022/10/25 08:01:52;;;;;;;7.63;1.48;;;13.90;99.90;;;;;;4938045;29;20122;-75
2022/10/25 08:04:18;;;;;;;4.78;1.30;;;14.00;99.90;;;;;;4938176;29;20027;-77
2022/10/25 08:06:43;;;;;;;5.65;1.73;;;14.00;99.90;;;;;;4938112;29;20063;-77
2022/10/25 08:09:09;;;;;;;6.43;1.30;;;14.10;99.90;;;;;;4938115;29;20042;-77
2022/10/25 08:11:34;;;;;;;10.25;1.48;;;14.20;99.90;;;;;;4938003;29;20034;-77
2022/10/25 08:14:00;;;;;;;8.20;1.35;;;14.20;99.90;;;;;;4938874;29;20023;-77
2022/10/25 08:16:25;;;;;;;8.65;1.40;;;14.30;99.90;;;;;;4938131;29;20078;-77
2022/10/25 08:18:51;;;;;;;5.25;1.23;;;14.30;99.90;;;;;;4937960;29;20034;-74
2022/10/25 08:21:16;;;;;;;12.02;1.40;;;14.40;99.90;;;;;;4938018;29;20031;-74
2022/10/25 08:23:42;;;;;;;10.05;1.48;;;14.50;99.90;;;;;;4937916;29;20074;-74
2022/10/25 08:26:07;;;;;;;2.42;1.33;;;14.60;99.90;;;;;;4937861;29;20218;-74
2022/10/25 08:28:33;;;;;;;3.97;0.82;;;14.90;99.90;;;;;;4938716;29;20019;-74
2022/10/25 08:30:59;;;;;;;3.70;1.02;;;15.20;99.90;;;;;;4938051;29;20027;-75
2022/10/25 08:33:25;;;;;;;4.28;0.98;;;15.30;99.90;;;;;;4955078;29;20032;-75
2022/10/25 08:35:50;;;;;;;4.57;0.95;;;15.50;99.90;;;;;;4955018;28;20039;-74
2022/10/25 08:38:16;;;;;;;6.32;1.20;;;15.70;99.90;;;;;;4938606;29;20035;-74
2022/10/25 08:40:53;;;;;;;7.05;0.95;;;15.70;99.90;;;;;;4955231;29;20027;-75
2022/10/25 08:43:29;;;;;;;4.43;1.00;;;15.90;99.90;;;;;;4955206;29;20023;-74
2022/10/25 08:46:12;;;;;;;6.18;0.90;;;15.90;99.90;;;;;;4938697;29;20031;-74
2022/10/25 08:48:47;;;;;;;2.13;1.10;;;16.00;99.90;;;;;;4937744;29;20402;-75
2022/10/25 08:51:25;;;;;;;6.35;1.10;;;16.00;99.90;;;;;;4937638;28;20027;-74
2022/10/25 08:53:55;;;;;;;5.47;1.30;;;16.10;99.90;;;;;;4954955;29;20087;-72
2022/10/25 08:56:22;;;;;;;4.15;0.80;;;16.10;99.90;;;;;;4957526;23;20123;-71
2022/10/25 08:58:59;;;;;;;9.02;1.63;;;16.10;99.90;;;;;;4935042;28;20038;-73
2022/10/25 09:01:50;;;;;;;8.23;1.23;;;16.10;99.90;;;;;;4934414;29;20024;-72
2022/10/25 09:04:16;;;;;;;5.72;1.38;;;16.20;99.90;;;;;;4936739;29;20083;-72
2022/10/25 09:07:13;;;;;;;7.72;0.90;;;16.30;99.90;;;;;;4938049;29;20027;-72
2022/10/25 09:09:55;;;;;;;4.57;0.80;;;16.30;99.90;;;;;;4937479;29;20036;-72
2022/10/25 09:12:32;;;;;;;2.38;0.80;;;16.30;99.90;;;;;;4939535;29;20035;-73
2022/10/25 09:15:23;;;;;;;1.67;0.73;;;16.30;99.90;;;;;;4938201;29;20090;-73
2022/10/25 09:17:51;;;;;;;2.63;0.93;;;16.50;99.90;;;;;;4938162;29;20042;-73
2022/10/25 09:20:26;;;;;;;6.50;1.45;;;16.60;99.90;;;;;;4939022;29;20039;-72
2022/10/25 09:23:28;;;;;;;7.28;0.70;;;16.70;99.90;;;;;;4938301;29;20027;-73
2022/10/25 09:26:05;;;;;;;6.07;0.90;;;16.60;99.90;;;;;;4918070;29;20435;-73
2022/10/25 09:28:33;;;;;;;6.47;0.68;;;16.60;99.90;;;;;;4917962;29;20452;-73
2022/10/25 09:31:02;;;;;;;4.95;1.08;;;16.60;99.90;;;;;;4917569;29;20032;-73
2022/10/25 09:33:29;;;;;;;3.97;0.80;;;16.70;99.90;;;;;;4918226;29;20035;-74
2022/10/25 09:35:58;;;;;;;0.77;0.50;;;16.80;99.90;;;;;;4902344;29;20153;-72
2022/10/25 09:38:39;;;;;;;1.60;0.68;;;16.80;99.90;;;;;;4917668;29;20035;-72
2022/10/25 09:41:17;;;;;;;6.18;0.90;;;16.80;99.90;;;;;;4902503;29;20043;-70
2022/10/25 09:43:52;;;;;;;3.63;1.27;;;16.80;99.90;;;;;;4917655;29;20068;-70
2022/10/25 09:46:57;;;;;;;5.07;0.82;;;16.80;99.90;;;;;;4917466;29;20032;-70
2022/10/25 09:49:32;;;;;;;3.40;0.80;;;16.80;99.90;;;;;;4901823;29;20107;-70
2022/10/25 09:52:16;;;;;;;1.65;0.60;;;16.90;99.90;;;;;;4901816;29;20514;-73
2022/10/25 09:55:13;;;;;;;2.53;1.30;;;16.90;99.90;;;;;;4917720;29;20098;-73
2022/10/25 09:57:39;;;;;;;7.00;0.70;;;16.90;99.90;;;;;;4917298;29;20043;-71
2022/10/25 10:00:05;;;;;;;3.55;0.65;;;17.00;99.90;;;;;;4917754;29;20032;-71
2022/10/25 10:02:31;;;;;;;2.65;0.88;;;17.10;99.90;;;;;;4917601;29;20090;-71
2022/10/25 10:04:56;;;;;;;2.58;1.10;;;17.10;99.90;;;;;;4937136;29;20424;-71
2022/10/25 10:07:31;;;;;;;2.35;0.85;;;17.20;99.90;;;;;;4937598;29;20035;-71
2022/10/25 10:10:00;;;;;;;5.13;0.88;;;17.40;99.90;;;;;;4938349;29;20030;-72
2022/10/25 10:12:34;;;;;;;5.82;0.80;;;17.50;99.90;;;;;;4937005;29;20036;-72
2022/10/25 10:15:12;;;;;;;2.42;0.70;;;17.60;99.90;;;;;;4936913;29;20086;-72
2022/10/25 10:17:38;;;;;;;4.55;1.02;;;17.60;99.90;;;;;;4936816;29;20058;-72
2022/10/25 10:20:11;;;;;;;6.55;0.85;;;17.60;99.90;;;;;;4936754;29;20059;-72
2022/10/25 10:22:53;;;;;;;7.63;0.77;;;17.50;99.90;;;;;;4937958;29;20067;-72
2022/10/25 10:25:25;;;;;;;3.05;0.60;;;17.40;99.90;;;;;;4936676;29;20042;-72
2022/10/25 10:27:54;;;;;;;4.05;1.15;;;17.30;99.90;;;;;;4936593;29;20027;-72
2022/10/25 10:30:23;;;;;;;4.25;1.02;;;17.30;99.90;;;;;;4936807;28;20075;-72
2022/10/25 10:32:53;;;;;;;5.50;0.93;;;17.40;99.90;;;;;;4938038;29;20065;-72
2022/10/25 10:35:30;;;;;;;4.30;0.80;;;17.50;99.90;;;;;;4937656;29;20036;-72
2022/10/25 10:38:20;;;;;;;7.55;0.73;;;17.80;99.90;;;;;;4937926;29;20032;-72
2022/10/25 10:40:47;;;;;;;4.28;1.00;;;17.90;99.90;;;;;;4936372;29;20032;-71
2022/10/25 10:43:29;;;;;;;7.13;1.50;;;18.00;99.90;;;;;;4937151;29;20028;-72
2022/10/25 10:46:03;;;;;;;3.72;1.15;;;17.90;99.90;;;;;;4927819;29;20035;-72
2022/10/25 10:48:37;;;;;;;3.42;0.73;;;18.10;99.90;;;;;;4922329;29;20039;-72
2022/10/25 10:54:28;;;;;;;5.65;1.20;;;18.20;99.90;;;;;;4918734;29;20096;-72
2022/10/25 10:56:56;;;;;;;1.33;0.80;;;17.90;99.90;;;;;;4917104;29;20115;-72
2022/10/25 10:59:50;;;;;;;6.88;1.83;;;17.70;99.90;;;;;;4917351;29;20020;-72
2022/10/25 11:02:35;;;;;;;4.10;1.23;;;17.70;99.90;;;;;;4925216;28;20051;-72
2022/10/25 11:05:00;;;;;;;4.82;1.08;;;17.80;99.90;;;;;;4934492;29;20103;-71
2022/10/25 11:07:34;;;;;;;3.05;0.85;;;17.80;99.90;;;;;;4916926;29;20020;-72
2022/10/25 11:10:15;;;;;;;1.90;0.70;;;17.80;99.90;;;;;;4917908;29;20028;-72
2022/10/25 11:12:42;;;;;;;2.53;0.87;;;17.80;99.90;;;;;;4917070;29;20036;-72
2022/10/25 11:15:14;;;;;;;3.25;1.08;;;17.90;99.90;;;;;;4916708;29;20036;-72
2022/10/25 11:17:52;;;;;;;3.00;1.02;;;18.00;99.90;;;;;;4916677;29;20024;-72
2022/10/25 11:20:35;;;;;;;5.60;1.50;;;18.30;99.90;;;;;;4918365;29;20035;-71
2022/10/25 11:23:15;;;;;;;4.18;1.88;;;18.70;99.90;;;;;;4917448;29;20028;-71
2022/10/25 11:26:08;;;;;;;1.02;0.80;;;18.80;99.90;;;;;;4916783;29;20024;-71
2022/10/25 11:29:04;;;;;;;4.03;1.38;;;18.70;99.90;;;;;;4917719;29;20448;-71
2022/10/25 11:31:47;;;;;;;5.72;0.75;;;18.60;99.90;;;;;;4917711;29;20034;-71
2022/10/25 11:34:50;;;;;;;2.72;0.80;;;18.60;99.90;;;;;;4917955;29;20100;-71
2022/10/25 11:37:38;;;;;;;4.22;1.63;;;18.70;99.90;;;;;;4916283;29;20054;-71
2022/10/25 11:40:29;;;;;;;2.88;1.40;;;18.90;99.90;;;;;;4917848;29;20083;-71
2022/10/25 11:43:22;;;;;;;6.90;0.90;;;18.80;99.90;;;;;;4916390;29;20052;-71
2022/10/25 11:46:02;;;;;;;6.43;0.77;;;19.10;99.90;;;;;;4916174;29;20028;-72
2022/10/25 11:48:46;;;;;;;9.50;2.28;;;19.20;99.90;;;;;;4917104;29;20083;-72
2022/10/25 11:51:24;;;;;;;3.65;1.00;;;19.60;99.90;;;;;;4933376;29;20027;-71
2022/10/25 11:53:55;;;;;;;1.02;0.50;;;19.70;99.90;;;;;;4935466;29;20020;-72
2022/10/25 11:56:26;;;;;;;;;;;19.90;99.90;;;;;;4935902;29;20050;-72
2022/10/25 11:59:18;;;;;;;1.75;0.38;;;20.10;99.90;;;;;;4935642;29;19906;-72
2022/10/25 12:01:52;;;;;;;2.30;0.80;;;20.40;99.90;;;;;;4935439;29;20028;-72
2022/10/25 12:04:39;;;;;;;3.03;0.85;;;20.60;99.90;;;;;;4936656;29;20384;-72
2022/10/25 12:07:28;;;;;;;6.72;0.93;;;20.70;99.90;;;;;;4934901;29;20055;-72
2022/10/25 12:10:16;;;;;;;5.35;0.90;;;21.10;99.90;;;;;;4935511;29;20384;-72
2022/10/25 12:12:49;;;;;;;2.88;0.90;;;21.20;99.90;;;;;;4936393;29;20024;-72
2022/10/25 12:15:20;;;;;;;1.13;0.60;;;21.10;99.90;;;;;;4936152;29;20024;-72
2022/10/25 12:17:47;;;;;;;2.50;1.10;;;21.20;99.90;;;;;;4935404;29;20078;-72
2022/10/25 12:20:21;;;;;;;1.38;0.43;;;21.10;99.90;;;;;;4936109;29;20035;-72
2022/10/25 12:22:50;;;;;;;2.00;0.65;;;21.10;99.90;;;;;;4935532;29;20135;-72
2022/10/25 12:25:23;;;;;;;3.53;1.00;;;20.90;99.90;;;;;;4936531;29;20110;-72
2022/10/25 12:28:04;;;;;;;2.10;0.82;;;21.00;99.90;;;;;;4934625;29;20023;-72
2022/10/25 12:30:31;;;;;;;4.22;0.93;;;21.20;99.90;;;;;;4935567;29;20059;-72
2022/10/25 12:33:08;;;;;;;6.43;1.40;;;21.60;99.90;;;;;;4934720;29;20028;-72
2022/10/25 12:35:41;;;;;;;3.05;0.88;;;21.70;99.90;;;;;;4934673;29;20032;-72
2022/10/25 12:38:33;;;;;;;2.88;0.32;;;21.70;99.90;;;;;;4935882;28;20035;-72
2022/10/25 12:41:05;;;;;;;2.00;0.60;;;22.00;99.90;;;;;;4940166;29;20091;-72
2022/10/25 12:43:47;;;;;;;3.60;0.60;;;22.10;99.90;;;;;;4940310;29;20042;-72
2022/10/25 12:46:30;;;;;;;1.90;0.80;;;22.30;99.90;;;;;;4939152;29;20028;-72
2022/10/25 12:49:27;;;;;;;2.17;0.60;;;22.60;99.90;;;;;;4939737;29;20027;-72
2022/10/25 12:52:27;;;;;;;3.13;0.85;;;22.80;99.90;;;;;;4940036;29;20479;-72
2022/10/25 12:55:13;;;;;;;2.15;0.52;;;22.90;99.90;;;;;;4939105;29;20040;-72
2022/10/25 12:58:21;;;;;;;1.42;0.45;;;22.80;99.90;;;;;;4938687;29;20035;-72
2022/10/25 13:01:23;;;;;;;3.38;0.75;;;22.60;99.90;;;;;;4938351;29;20119;-72
2022/10/25 13:03:58;;;;;;;1.13;0.70;;;22.50;99.90;;;;;;4938738;29;20027;-72
2022/10/25 13:06:39;;;;;;;1.70;0.77;;;22.20;99.90;;;;;;4939455;29;20024;-72
2022/10/25 13:09:09;;;;;;;4.53;0.77;;;22.20;99.90;;;;;;4938925;29;20074;-72
2022/10/25 13:11:39;;;;;;;2.13;1.00;;;21.80;99.90;;;;;;4939098;29;20028;-72